Terminal Aerodrome Forecast
Issued by NWS

Home | Current Version | Previous Version | Text Only | Print | Product List | Glossary On
Versions: 1 2 3 4 5 6 7 8 9 10 11 12 13
000
FTUS45 KRIW 212321
TAFRKS
TAF
KRKS 212321Z 2200/2224 29010G15KT P6SM SCT110
     FM220500 06009KT P6SM FEW150
     FM221400 VRB06KT P6SM SKC
     FM222000 28010KT P6SM FEW150=

USA.gov is the U.S. government's official web portal to all federal, state and local government web resources and services.